sensor_id;sensor_type;location;lat;lon;timestamp;temperature;humidity
569;DHT22;269;48.884;9.192;2022-12-22T00:02:24;10.10;99.90
569;DHT22;269;48.884;9.192;2022-12-22T00:05:13;10.10;99.90
569;DHT22;269;48.884;9.192;2022-12-22T00:07:57;10.10;99.90
569;DHT22;269;48.884;9.192;2022-12-22T00:10:43;10.00;99.90
569;DHT22;269;48.884;9.192;2022-12-22T00:13:28;10.00;99.90
569;DHT22;269;48.884;9.192;2022-12-22T00:16:13;10.10;99.90
569;DHT22;269;48.884;9.192;2022-12-22T00:19:00;10.10;99.90
569;DHT22;269;48.884;9.192;2022-12-22T00:21:46;10.20;99.90
569;DHT22;269;48.884;9.192;2022-12-22T00:24:30;10.30;99.90
569;DHT22;269;48.884;9.192;2022-12-22T00:27:17;10.30;99.90
569;DHT22;269;48.884;9.192;2022-12-22T00:30:11;10.30;99.90
569;DHT22;269;48.884;9.192;2022-12-22T00:32:57;10.30;99.90
569;DHT22;269;48.884;9.192;2022-12-22T00:35:44;10.40;99.90
569;DHT22;269;48.884;9.192;2022-12-22T00:38:29;10.40;99.90
569;DHT22;269;48.884;9.192;2022-12-22T00:41:14;10.50;99.90
569;DHT22;269;48.884;9.192;2022-12-22T00:43:59;10.50;99.90
569;DHT22;269;48.884;9.192;2022-12-22T00:46:44;10.60;99.90
569;DHT22;269;48.884;9.192;2022-12-22T00:49:31;10.60;99.90
569;DHT22;269;48.884;9.192;2022-12-22T00:52:20;10.50;99.90
569;DHT22;269;48.884;9.192;2022-12-22T00:55:12;10.50;99.90
569;DHT22;269;48.884;9.192;2022-12-22T00:57:58;10.40;99.90
569;DHT22;269;48.884;9.192;2022-12-22T01:00:44;10.20;99.90
569;DHT22;269;48.884;9.192;2022-12-22T01:03:29;10.10;99.90
569;DHT22;269;48.884;9.192;2022-12-22T01:06:14;10.00;99.90
569;DHT22;269;48.884;9.192;2022-12-22T01:09:00;9.90;99.90
569;DHT22;269;48.884;9.192;2022-12-22T01:11:45;9.90;99.90
569;DHT22;269;48.884;9.192;2022-12-22T01:14:29;10.00;99.90
569;DHT22;269;48.884;9.192;2022-12-22T01:17:14;10.10;99.90
569;DHT22;269;48.884;9.192;2022-12-22T01:19:59;10.30;99.90
569;DHT22;269;48.884;9.192;2022-12-22T01:22:43;10.40;99.90
569;DHT22;269;48.884;9.192;2022-12-22T01:25:30;10.60;99.90
569;DHT22;269;48.884;9.192;2022-12-22T01:28:15;10.70;99.90
569;DHT22;269;48.884;9.192;2022-12-22T01:31:15;10.80;99.90
569;DHT22;269;48.884;9.192;2022-12-22T01:34:00;10.90;99.90
569;DHT22;269;48.884;9.192;2022-12-22T01:36:44;10.90;99.90
569;DHT22;269;48.884;9.192;2022-12-22T01:39:29;10.90;99.90
569;DHT22;269;48.884;9.192;2022-12-22T01:42:16;10.90;99.90
569;DHT22;269;48.884;9.192;2022-12-22T01:45:12;10.70;99.90
569;DHT22;269;48.884;9.192;2022-12-22T01:48:01;10.50;99.90
569;DHT22;269;48.884;9.192;2022-12-22T01:50:46;10.40;99.90
569;DHT22;269;48.884;9.192;2022-12-22T01:53:30;10.30;99.90
569;DHT22;269;48.884;9.192;2022-12-22T01:56:15;10.20;99.90
569;DHT22;269;48.884;9.192;2022-12-22T01:59:03;10.10;99.90
569;DHT22;269;48.884;9.192;2022-12-22T02:01:48;10.00;99.90
569;DHT22;269;48.884;9.192;2022-12-22T02:04:35;10.00;99.90
569;DHT22;269;48.884;9.192;2022-12-22T02:07:37;10.00;99.90
569;DHT22;269;48.884;9.192;2022-12-22T02:10:39;9.90;99.90
569;DHT22;269;48.884;9.192;2022-12-22T02:13:35;9.90;99.90
569;DHT22;269;48.884;9.192;2022-12-22T02:16:26;9.90;99.90
569;DHT22;269;48.884;9.192;2022-12-22T02:19:25;9.90;99.90
569;DHT22;269;48.884;9.192;2022-12-22T02:22:22;9.90;99.90
569;DHT22;269;48.884;9.192;2022-12-22T02:25:14;10.00;99.90
569;DHT22;269;48.884;9.192;2022-12-22T02:28:01;10.00;99.90
569;DHT22;269;48.884;9.192;2022-12-22T02:30:48;10.00;99.90
569;DHT22;269;48.884;9.192;2022-12-22T02:33:34;10.10;99.90
569;DHT22;269;48.884;9.192;2022-12-22T02:36:26;10.00;99.90
569;DHT22;269;48.884;9.192;2022-12-22T02:39:21;10.10;99.90
569;DHT22;269;48.884;9.192;2022-12-22T02:42:15;10.10;99.90
569;DHT22;269;48.884;9.192;2022-12-22T02:45:12;10.10;99.90
569;DHT22;269;48.884;9.192;2022-12-22T02:48:04;10.20;99.90
569;DHT22;269;48.884;9.192;2022-12-22T02:50:52;10.20;99.90
569;DHT22;269;48.884;9.192;2022-12-22T02:53:39;10.20;99.90
569;DHT22;269;48.884;9.192;2022-12-22T02:56:24;10.20;99.90
569;DHT22;269;48.884;9.192;2022-12-22T02:59:09;10.30;99.90
569;DHT22;269;48.884;9.192;2022-12-22T03:01:55;10.30;99.90
569;DHT22;269;48.884;9.192;2022-12-22T03:04:40;10.30;99.90
569;DHT22;269;48.884;9.192;2022-12-22T03:07:25;10.40;99.90
569;DHT22;269;48.884;9.192;2022-12-22T03:10:10;10.30;99.90
569;DHT22;269;48.884;9.192;2022-12-22T03:12:57;10.30;99.90
569;DHT22;269;48.884;9.192;2022-12-22T03:15:42;10.30;99.90
569;DHT22;269;48.884;9.192;2022-12-22T03:18:28;10.30;99.90
569;DHT22;269;48.884;9.192;2022-12-22T03:21:13;10.30;99.90
569;DHT22;269;48.884;9.192;2022-12-22T03:23:59;10.20;99.90
569;DHT22;269;48.884;9.192;2022-12-22T03:26:44;10.30;99.90
569;DHT22;269;48.884;9.192;2022-12-22T03:29:11;10.20;99.90
569;DHT22;269;48.884;9.192;2022-12-22T03:31:38;10.20;99.90
569;DHT22;269;48.884;9.192;2022-12-22T03:34:06;10.20;99.90
569;DHT22;269;48.884;9.192;2022-12-22T03:36:33;10.20;99.90
569;DHT22;269;48.884;9.192;2022-12-22T03:39:00;10.10;99.90
569;DHT22;269;48.884;9.192;2022-12-22T03:41:28;10.10;99.90
569;DHT22;269;48.884;9.192;2022-12-22T03:44:12;10.10;99.90
569;DHT22;269;48.884;9.192;2022-12-22T03:46:57;10.00;99.90
569;DHT22;269;48.884;9.192;2022-12-22T03:49:25;10.10;99.90
569;DHT22;269;48.884;9.192;2022-12-22T03:51:53;10.10;99.90
569;DHT22;269;48.884;9.192;2022-12-22T03:54:22;10.10;99.90
569;DHT22;269;48.884;9.192;2022-12-22T03:56:50;10.00;99.90
569;DHT22;269;48.884;9.192;2022-12-22T03:59:18;10.10;99.90
569;DHT22;269;48.884;9.192;2022-12-22T04:01:47;10.10;99.90
569;DHT22;269;48.884;9.192;2022-12-22T04:04:16;10.10;99.90
569;DHT22;269;48.884;9.192;2022-12-22T04:06:46;10.10;99.90
569;DHT22;269;48.884;9.192;2022-12-22T04:09:13;10.10;99.90
569;DHT22;269;48.884;9.192;2022-12-22T04:11:40;10.10;99.90
569;DHT22;269;48.884;9.192;2022-12-22T04:14:25;10.10;99.90
569;DHT22;269;48.884;9.192;2022-12-22T04:16:52;10.10;99.90
569;DHT22;269;48.884;9.192;2022-12-22T04:19:19;10.10;99.90
569;DHT22;269;48.884;9.192;2022-12-22T04:21:48;10.20;99.90
569;DHT22;269;48.884;9.192;2022-12-22T04:24:15;10.20;99.90
569;DHT22;269;48.884;9.192;2022-12-22T04:26:43;10.30;99.90
569;DHT22;269;48.884;9.192;2022-12-22T04:29:10;10.30;99.90
569;DHT22;269;48.884;9.192;2022-12-22T04:31:37;10.30;99.90
569;DHT22;269;48.884;9.192;2022-12-22T04:34:04;10.40;99.90
569;DHT22;269;48.884;9.192;2022-12-22T04:36:31;10.30;99.90
569;DHT22;269;48.884;9.192;2022-12-22T04:39:00;10.30;99.90
569;DHT22;269;48.884;9.192;2022-12-22T04:41:27;10.30;99.90
569;DHT22;269;48.884;9.192;2022-12-22T04:43:54;10.20;99.90
569;DHT22;269;48.884;9.192;2022-12-22T04:46:21;10.20;99.90
569;DHT22;269;48.884;9.192;2022-12-22T04:48:48;10.10;99.90
569;DHT22;269;48.884;9.192;2022-12-22T04:51:16;10.10;99.90
569;DHT22;269;48.884;9.192;2022-12-22T04:53:43;10.10;99.90
569;DHT22;269;48.884;9.192;2022-12-22T04:56:12;10.00;99.90
569;DHT22;269;48.884;9.192;2022-12-22T04:58:39;10.00;99.90
569;DHT22;269;48.884;9.192;2022-12-22T05:01:11;9.90;99.90
569;DHT22;269;48.884;9.192;2022-12-22T05:03:38;9.90;99.90
569;DHT22;269;48.884;9.192;2022-12-22T05:06:06;9.90;99.90
569;DHT22;269;48.884;9.192;2022-12-22T05:08:33;9.90;99.90
569;DHT22;269;48.884;9.192;2022-12-22T05:11:01;9.90;99.90
569;DHT22;269;48.884;9.192;2022-12-22T05:13:30;9.90;99.90
569;DHT22;269;48.884;9.192;2022-12-22T05:16:02;9.90;99.90
569;DHT22;269;48.884;9.192;2022-12-22T05:18:30;9.80;99.90
569;DHT22;269;48.884;9.192;2022-12-22T05:20:58;9.80;99.90
569;DHT22;269;48.884;9.192;2022-12-22T05:23:27;9.80;99.90
569;DHT22;269;48.884;9.192;2022-12-22T05:25:54;9.80;99.90
569;DHT22;269;48.884;9.192;2022-12-22T05:28:21;9.80;99.90
569;DHT22;269;48.884;9.192;2022-12-22T05:30:49;9.90;99.90
569;DHT22;269;48.884;9.192;2022-12-22T05:33:17;10.00;99.90
569;DHT22;269;48.884;9.192;2022-12-22T05:35:44;10.10;99.90
569;DHT22;269;48.884;9.192;2022-12-22T05:38:11;10.10;99.90
569;DHT22;269;48.884;9.192;2022-12-22T05:40:38;10.10;99.90
569;DHT22;269;48.884;9.192;2022-12-22T05:43:05;10.10;99.90
569;DHT22;269;48.884;9.192;2022-12-22T05:45:32;10.10;99.90
569;DHT22;269;48.884;9.192;2022-12-22T05:48:01;10.20;99.90
569;DHT22;269;48.884;9.192;2022-12-22T05:50:28;10.30;99.90
569;DHT22;269;48.884;9.192;2022-12-22T05:52:56;10.30;99.90
569;DHT22;269;48.884;9.192;2022-12-22T05:55:23;10.40;99.90
569;DHT22;269;48.884;9.192;2022-12-22T05:57:50;10.40;99.90
569;DHT22;269;48.884;9.192;2022-12-22T06:00:18;10.40;99.90
569;DHT22;269;48.884;9.192;2022-12-22T06:02:46;10.40;99.90
569;DHT22;269;48.884;9.192;2022-12-22T06:05:14;10.40;99.90
569;DHT22;269;48.884;9.192;2022-12-22T06:07:41;10.40;99.90
569;DHT22;269;48.884;9.192;2022-12-22T06:10:10;10.40;99.90
569;DHT22;269;48.884;9.192;2022-12-22T06:12:37;10.40;99.90
569;DHT22;269;48.884;9.192;2022-12-22T06:15:06;10.40;99.90
569;DHT22;269;48.884;9.192;2022-12-22T06:17:33;10.40;99.90
569;DHT22;269;48.884;9.192;2022-12-22T06:20:00;10.30;99.90
569;DHT22;269;48.884;9.192;2022-12-22T06:22:29;10.30;99.90
569;DHT22;269;48.884;9.192;2022-12-22T06:24:57;10.20;99.90
569;DHT22;269;48.884;9.192;2022-12-22T06:27:24;10.20;99.90
569;DHT22;269;48.884;9.192;2022-12-22T06:29:51;10.20;99.90
569;DHT22;269;48.884;9.192;2022-12-22T06:32:18;10.20;99.90
569;DHT22;269;48.884;9.192;2022-12-22T06:34:45;10.30;99.90
569;DHT22;269;48.884;9.192;2022-12-22T06:37:12;10.30;99.90
569;DHT22;269;48.884;9.192;2022-12-22T06:39:41;10.30;99.90
569;DHT22;269;48.884;9.192;2022-12-22T06:42:08;10.40;99.90
569;DHT22;269;48.884;9.192;2022-12-22T06:44:53;10.40;99.90
569;DHT22;269;48.884;9.192;2022-12-22T06:47:20;10.50;99.90
569;DHT22;269;48.884;9.192;2022-12-22T06:49:48;10.50;99.90
569;DHT22;269;48.884;9.192;2022-12-22T06:52:16;10.60;99.90
569;DHT22;269;48.884;9.192;2022-12-22T06:54:49;10.70;99.90
569;DHT22;269;48.884;9.192;2022-12-22T06:57:17;10.70;99.90
569;DHT22;269;48.884;9.192;2022-12-22T06:59:44;10.70;99.90
569;DHT22;269;48.884;9.192;2022-12-22T07:02:11;10.80;99.90
569;DHT22;269;48.884;9.192;2022-12-22T07:04:38;10.90;99.90
569;DHT22;269;48.884;9.192;2022-12-22T07:07:06;10.90;99.90
569;DHT22;269;48.884;9.192;2022-12-22T07:09:33;11.00;99.90
569;DHT22;269;48.884;9.192;2022-12-22T07:12:02;11.00;99.90
569;DHT22;269;48.884;9.192;2022-12-22T07:14:29;11.00;99.90
569;DHT22;269;48.884;9.192;2022-12-22T07:16:56;11.10;99.90
569;DHT22;269;48.884;9.192;2022-12-22T07:19:24;11.10;99.90
569;DHT22;269;48.884;9.192;2022-12-22T07:21:51;11.20;99.90
569;DHT22;269;48.884;9.192;2022-12-22T07:24:18;11.10;99.90
569;DHT22;269;48.884;9.192;2022-12-22T07:26:50;11.10;99.90
569;DHT22;269;48.884;9.192;2022-12-22T07:29:18;11.00;99.90
569;DHT22;269;48.884;9.192;2022-12-22T07:31:46;10.90;99.90
569;DHT22;269;48.884;9.192;2022-12-22T07:34:14;10.90;99.90
569;DHT22;269;48.884;9.192;2022-12-22T07:36:41;10.90;99.90
569;DHT22;269;48.884;9.192;2022-12-22T07:39:12;10.90;99.90
569;DHT22;269;48.884;9.192;2022-12-22T07:41:39;10.90;99.90
569;DHT22;269;48.884;9.192;2022-12-22T07:44:25;10.90;99.90
569;DHT22;269;48.884;9.192;2022-12-22T07:46:53;10.90;99.90
569;DHT22;269;48.884;9.192;2022-12-22T07:49:20;11.00;99.90
569;DHT22;269;48.884;9.192;2022-12-22T07:52:06;11.00;99.90
569;DHT22;269;48.884;9.192;2022-12-22T07:54:33;11.00;99.90
569;DHT22;269;48.884;9.192;2022-12-22T07:57:01;11.00;99.90
569;DHT22;269;48.884;9.192;2022-12-22T07:59:31;11.10;99.90
569;DHT22;269;48.884;9.192;2022-12-22T08:01:58;11.10;99.90
569;DHT22;269;48.884;9.192;2022-12-22T08:04:26;11.10;99.90
569;DHT22;269;48.884;9.192;2022-12-22T08:06:53;11.10;99.90
569;DHT22;269;48.884;9.192;2022-12-22T08:09:20;11.10;99.90
569;DHT22;269;48.884;9.192;2022-12-22T08:11:47;11.10;99.90
569;DHT22;269;48.884;9.192;2022-12-22T08:14:16;11.10;99.90
569;DHT22;269;48.884;9.192;2022-12-22T08:16:44;11.10;99.90
569;DHT22;269;48.884;9.192;2022-12-22T08:19:12;11.10;99.90
569;DHT22;269;48.884;9.192;2022-12-22T08:21:39;11.20;99.90
569;DHT22;269;48.884;9.192;2022-12-22T08:24:07;11.20;99.90
569;DHT22;269;48.884;9.192;2022-12-22T08:26:36;11.30;99.90
569;DHT22;269;48.884;9.192;2022-12-22T08:29:08;11.30;99.90
569;DHT22;269;48.884;9.192;2022-12-22T08:31:36;11.30;99.90
569;DHT22;269;48.884;9.192;2022-12-22T08:34:08;11.30;99.90
569;DHT22;269;48.884;9.192;2022-12-22T08:36:38;11.30;99.90
569;DHT22;269;48.884;9.192;2022-12-22T08:39:06;11.30;99.90
569;DHT22;269;48.884;9.192;2022-12-22T08:41:34;11.20;99.90
569;DHT22;269;48.884;9.192;2022-12-22T08:44:19;11.10;99.90
569;DHT22;269;48.884;9.192;2022-12-22T08:46:46;11.10;99.90
569;DHT22;269;48.884;9.192;2022-12-22T08:49:15;11.00;99.90
569;DHT22;269;48.884;9.192;2022-12-22T08:51:43;11.00;99.90
569;DHT22;269;48.884;9.192;2022-12-22T08:54:10;11.00;99.90
569;DHT22;269;48.884;9.192;2022-12-22T08:56:38;10.90;99.90
569;DHT22;269;48.884;9.192;2022-12-22T08:59:06;11.00;99.90
569;DHT22;269;48.884;9.192;2022-12-22T09:01:35;11.00;99.90
569;DHT22;269;48.884;9.192;2022-12-22T09:04:04;11.00;99.90
569;DHT22;269;48.884;9.192;2022-12-22T09:06:33;11.10;99.90
569;DHT22;269;48.884;9.192;2022-12-22T09:09:03;11.20;99.90
569;DHT22;269;48.884;9.192;2022-12-22T09:11:31;11.20;99.90
569;DHT22;269;48.884;9.192;2022-12-22T09:14:00;11.30;99.90
569;DHT22;269;48.884;9.192;2022-12-22T09:16:29;11.40;99.90
569;DHT22;269;48.884;9.192;2022-12-22T09:18:57;11.50;99.90
569;DHT22;269;48.884;9.192;2022-12-22T09:21:25;11.50;99.90
569;DHT22;269;48.884;9.192;2022-12-22T09:23:55;11.50;99.90
569;DHT22;269;48.884;9.192;2022-12-22T09:26:24;11.50;99.90
569;DHT22;269;48.884;9.192;2022-12-22T09:28:51;11.40;99.90
569;DHT22;269;48.884;9.192;2022-12-22T09:31:19;11.20;99.90
569;DHT22;269;48.884;9.192;2022-12-22T09:33:47;11.00;99.90
569;DHT22;269;48.884;9.192;2022-12-22T09:36:17;10.90;99.90
569;DHT22;269;48.884;9.192;2022-12-22T09:38:44;10.90;99.90
569;DHT22;269;48.884;9.192;2022-12-22T09:41:17;10.80;99.90
569;DHT22;269;48.884;9.192;2022-12-22T09:43:46;10.80;99.90
569;DHT22;269;48.884;9.192;2022-12-22T09:46:19;10.80;99.90
569;DHT22;269;48.884;9.192;2022-12-22T09:48:47;10.70;99.90
569;DHT22;269;48.884;9.192;2022-12-22T09:51:15;10.70;99.90
569;DHT22;269;48.884;9.192;2022-12-22T09:53:44;10.60;99.90
569;DHT22;269;48.884;9.192;2022-12-22T09:56:15;10.60;99.90
569;DHT22;269;48.884;9.192;2022-12-22T09:58:43;10.50;99.90
569;DHT22;269;48.884;9.192;2022-12-22T10:01:28;10.50;99.90
569;DHT22;269;48.884;9.192;2022-12-22T10:04:03;10.50;99.90
569;DHT22;269;48.884;9.192;2022-12-22T10:06:34;10.40;99.90
569;DHT22;269;48.884;9.192;2022-12-22T10:09:13;10.50;99.90
569;DHT22;269;48.884;9.192;2022-12-22T10:11:50;10.10;99.90
569;DHT22;269;48.884;9.192;2022-12-22T10:14:17;10.40;99.90
569;DHT22;269;48.884;9.192;2022-12-22T10:16:45;10.40;99.90
569;DHT22;269;48.884;9.192;2022-12-22T10:19:13;10.30;99.90
569;DHT22;269;48.884;9.192;2022-12-22T10:21:41;10.30;99.90
569;DHT22;269;48.884;9.192;2022-12-22T10:24:16;10.30;99.90
569;DHT22;269;48.884;9.192;2022-12-22T10:26:44;10.30;99.90
569;DHT22;269;48.884;9.192;2022-12-22T10:29:14;10.30;99.90
569;DHT22;269;48.884;9.192;2022-12-22T10:31:56;10.20;99.90
569;DHT22;269;48.884;9.192;2022-12-22T10:34:24;10.20;99.90
569;DHT22;269;48.884;9.192;2022-12-22T10:36:55;10.20;99.90
569;DHT22;269;48.884;9.192;2022-12-22T10:39:27;10.20;99.90
569;DHT22;269;48.884;9.192;2022-12-22T10:42:00;10.10;99.90
569;DHT22;269;48.884;9.192;2022-12-22T10:44:30;10.10;99.90
569;DHT22;269;48.884;9.192;2022-12-22T10:47:09;10.10;99.90
569;DHT22;269;48.884;9.192;2022-12-22T10:49:38;10.10;99.90
569;DHT22;269;48.884;9.192;2022-12-22T10:52:11;10.10;99.90
569;DHT22;269;48.884;9.192;2022-12-22T10:54:39;10.10;99.90
569;DHT22;269;48.884;9.192;2022-12-22T10:57:28;10.20;99.90
569;DHT22;269;48.884;9.192;2022-12-22T10:59:59;10.20;99.90
569;DHT22;269;48.884;9.192;2022-12-22T11:02:34;10.20;99.90
569;DHT22;269;48.884;9.192;2022-12-22T11:05:05;10.20;99.90
569;DHT22;269;48.884;9.192;2022-12-22T11:07:35;10.30;99.90
569;DHT22;269;48.884;9.192;2022-12-22T11:10:14;10.60;99.90
569;DHT22;269;48.884;9.192;2022-12-22T11:15:41;10.50;99.90
569;DHT22;269;48.884;9.192;2022-12-22T11:18:26;10.50;99.90
569;DHT22;269;48.884;9.192;2022-12-22T11:21:14;10.60;99.90
569;DHT22;269;48.884;9.192;2022-12-22T11:23:54;10.90;99.90
569;DHT22;269;48.884;9.192;2022-12-22T11:26:32;10.50;99.90
569;DHT22;269;48.884;9.192;2022-12-22T11:29:19;10.80;99.90
569;DHT22;269;48.884;9.192;2022-12-22T11:32:01;11.20;99.90
569;DHT22;269;48.884;9.192;2022-12-22T11:34:45;11.00;99.90
569;DHT22;269;48.884;9.192;2022-12-22T11:37:28;11.10;99.90
569;DHT22;269;48.884;9.192;2022-12-22T11:40:05;11.20;99.90
569;DHT22;269;48.884;9.192;2022-12-22T11:42:52;11.30;99.90
569;DHT22;269;48.884;9.192;2022-12-22T11:45:38;11.30;99.90
569;DHT22;269;48.884;9.192;2022-12-22T11:48:30;11.40;99.90
569;DHT22;269;48.884;9.192;2022-12-22T11:51:07;11.50;99.90
569;DHT22;269;48.884;9.192;2022-12-22T11:54:06;11.60;99.90
569;DHT22;269;48.884;9.192;2022-12-22T11:56:39;11.60;99.90
569;DHT22;269;48.884;9.192;2022-12-22T11:59:23;11.70;99.90
569;DHT22;269;48.884;9.192;2022-12-22T12:02:07;11.70;99.90
569;DHT22;269;48.884;9.192;2022-12-22T12:07:32;11.80;99.90
569;DHT22;269;48.884;9.192;2022-12-22T12:10:13;11.80;99.90
569;DHT22;269;48.884;9.192;2022-12-22T12:12:48;11.80;99.90
569;DHT22;269;48.884;9.192;2022-12-22T12:15:25;11.80;99.90
569;DHT22;269;48.884;9.192;2022-12-22T12:18:21;11.80;99.90
569;DHT22;269;48.884;9.192;2022-12-22T12:21:00;11.80;99.90
569;DHT22;269;48.884;9.192;2022-12-22T12:23:44;11.80;99.90
569;DHT22;269;48.884;9.192;2022-12-22T12:26:19;12.00;99.90
569;DHT22;269;48.884;9.192;2022-12-22T12:28:56;12.00;99.90
569;DHT22;269;48.884;9.192;2022-12-22T12:31:30;12.10;99.90
569;DHT22;269;48.884;9.192;2022-12-22T12:33:59;12.30;99.90
569;DHT22;269;48.884;9.192;2022-12-22T12:36:32;12.30;99.90
569;DHT22;269;48.884;9.192;2022-12-22T12:39:11;12.30;99.90
569;DHT22;269;48.884;9.192;2022-12-22T12:41:48;12.40;99.90
569;DHT22;269;48.884;9.192;2022-12-22T12:44:20;12.40;99.90
569;DHT22;269;48.884;9.192;2022-12-22T12:47:20;12.30;99.90
569;DHT22;269;48.884;9.192;2022-12-22T12:50:29;12.20;99.90
569;DHT22;269;48.884;9.192;2022-12-22T12:53:06;12.20;99.90
569;DHT22;269;48.884;9.192;2022-12-22T12:55:51;12.20;99.90
569;DHT22;269;48.884;9.192;2022-12-22T12:58:48;12.30;99.90
569;DHT22;269;48.884;9.192;2022-12-22T13:10:43;12.20;99.90
569;DHT22;269;48.884;9.192;2022-12-22T13:16:20;12.10;99.90
569;DHT22;269;48.884;9.192;2022-12-22T13:18:48;12.10;99.90
569;DHT22;269;48.884;9.192;2022-12-22T13:21:20;12.10;99.90
569;DHT22;269;48.884;9.192;2022-12-22T13:23:57;12.10;99.90
569;DHT22;269;48.884;9.192;2022-12-22T13:26:31;12.10;99.90
569;DHT22;269;48.884;9.192;2022-12-22T13:29:00;12.10;99.90
569;DHT22;269;48.884;9.192;2022-12-22T13:31:32;12.10;99.90
569;DHT22;269;48.884;9.192;2022-12-22T13:34:05;12.10;99.90
569;DHT22;269;48.884;9.192;2022-12-22T13:36:34;12.00;99.90
569;DHT22;269;48.884;9.192;2022-12-22T13:39:04;12.00;99.90
569;DHT22;269;48.884;9.192;2022-12-22T13:41:33;12.00;99.90
569;DHT22;269;48.884;9.192;2022-12-22T13:44:05;12.20;99.90
569;DHT22;269;48.884;9.192;2022-12-22T13:46:34;12.20;99.90
569;DHT22;269;48.884;9.192;2022-12-22T13:49:02;12.20;99.90
569;DHT22;269;48.884;9.192;2022-12-22T13:51:35;12.20;99.90
569;DHT22;269;48.884;9.192;2022-12-22T13:54:11;12.20;99.90
569;DHT22;269;48.884;9.192;2022-12-22T13:56:42;12.10;99.90
569;DHT22;269;48.884;9.192;2022-12-22T13:59:20;12.10;99.90
569;DHT22;269;48.884;9.192;2022-12-22T14:01:57;12.10;99.90
569;DHT22;269;48.884;9.192;2022-12-22T14:04:26;12.00;99.90
569;DHT22;269;48.884;9.192;2022-12-22T14:06:53;12.00;99.90
569;DHT22;269;48.884;9.192;2022-12-22T14:09:22;11.90;99.90
569;DHT22;269;48.884;9.192;2022-12-22T14:12:02;11.90;99.90
569;DHT22;269;48.884;9.192;2022-12-22T14:14:35;11.90;99.90
569;DHT22;269;48.884;9.192;2022-12-22T14:17:05;11.80;99.90
569;DHT22;269;48.884;9.192;2022-12-22T14:19:41;11.80;99.90
569;DHT22;269;48.884;9.192;2022-12-22T14:22:10;11.80;99.90
569;DHT22;269;48.884;9.192;2022-12-22T14:24:43;11.80;99.90
569;DHT22;269;48.884;9.192;2022-12-22T14:27:17;11.80;99.90
569;DHT22;269;48.884;9.192;2022-12-22T14:29:49;11.80;99.90
569;DHT22;269;48.884;9.192;2022-12-22T14:32:38;11.70;99.90
569;DHT22;269;48.884;9.192;2022-12-22T14:35:21;11.80;99.90
569;DHT22;269;48.884;9.192;2022-12-22T14:37:52;11.80;99.90
569;DHT22;269;48.884;9.192;2022-12-22T14:40:30;11.80;99.90
569;DHT22;269;48.884;9.192;2022-12-22T14:43:02;11.80;99.90
569;DHT22;269;48.884;9.192;2022-12-22T14:45:30;11.80;99.90
569;DHT22;269;48.884;9.192;2022-12-22T14:47:57;11.90;99.90
569;DHT22;269;48.884;9.192;2022-12-22T14:50:26;11.90;99.90
569;DHT22;269;48.884;9.192;2022-12-22T14:52:55;11.80;99.90
569;DHT22;269;48.884;9.192;2022-12-22T14:55:27;11.80;99.90
569;DHT22;269;48.884;9.192;2022-12-22T14:58:00;11.80;99.90
569;DHT22;269;48.884;9.192;2022-12-22T15:00:32;11.80;99.90
569;DHT22;269;48.884;9.192;2022-12-22T15:03:02;11.80;99.90
569;DHT22;269;48.884;9.192;2022-12-22T15:05:32;11.80;99.90
569;DHT22;269;48.884;9.192;2022-12-22T15:08:02;11.80;99.90
569;DHT22;269;48.884;9.192;2022-12-22T15:10:39;11.80;99.90
569;DHT22;269;48.884;9.192;2022-12-22T15:13:17;11.80;99.90
569;DHT22;269;48.884;9.192;2022-12-22T15:15:44;11.80;99.90
569;DHT22;269;48.884;9.192;2022-12-22T15:18:13;11.70;99.90
569;DHT22;269;48.884;9.192;2022-12-22T15:20:41;11.70;99.90
569;DHT22;269;48.884;9.192;2022-12-22T15:23:10;11.70;99.90
569;DHT22;269;48.884;9.192;2022-12-22T15:25:39;11.70;99.90
569;DHT22;269;48.884;9.192;2022-12-22T15:28:06;11.70;99.90
569;DHT22;269;48.884;9.192;2022-12-22T15:30:35;11.70;99.90
569;DHT22;269;48.884;9.192;2022-12-22T15:33:03;11.70;99.90
569;DHT22;269;48.884;9.192;2022-12-22T15:35:35;11.70;99.90
569;DHT22;269;48.884;9.192;2022-12-22T15:38:09;11.70;99.90
569;DHT22;269;48.884;9.192;2022-12-22T15:40:37;11.70;99.90
569;DHT22;269;48.884;9.192;2022-12-22T15:43:05;11.70;99.90
569;DHT22;269;48.884;9.192;2022-12-22T15:45:32;11.70;99.90
569;DHT22;269;48.884;9.192;2022-12-22T15:48:02;11.70;99.90
569;DHT22;269;48.884;9.192;2022-12-22T15:50:33;11.70;99.90
569;DHT22;269;48.884;9.192;2022-12-22T15:53:03;11.60;99.90
569;DHT22;269;48.884;9.192;2022-12-22T15:55:31;11.60;99.90
569;DHT22;269;48.884;9.192;2022-12-22T15:58:02;11.60;99.90
569;DHT22;269;48.884;9.192;2022-12-22T16:00:28;11.60;99.90
569;DHT22;269;48.884;9.192;2022-12-22T16:02:56;11.60;99.90
569;DHT22;269;48.884;9.192;2022-12-22T16:05:24;11.50;99.90
569;DHT22;269;48.884;9.192;2022-12-22T16:07:57;11.50;99.90
569;DHT22;269;48.884;9.192;2022-12-22T16:10:27;11.50;99.90
569;DHT22;269;48.884;9.192;2022-12-22T16:12:58;11.40;99.90
569;DHT22;269;48.884;9.192;2022-12-22T16:15:27;11.40;99.90
569;DHT22;269;48.884;9.192;2022-12-22T16:17:55;11.40;99.90
569;DHT22;269;48.884;9.192;2022-12-22T16:20:24;11.40;99.90
569;DHT22;269;48.884;9.192;2022-12-22T16:22:52;11.30;99.90
569;DHT22;269;48.884;9.192;2022-12-22T16:25:23;11.30;99.90
569;DHT22;269;48.884;9.192;2022-12-22T16:27:53;11.30;99.90
569;DHT22;269;48.884;9.192;2022-12-22T16:30:22;11.30;99.90
569;DHT22;269;48.884;9.192;2022-12-22T16:32:50;11.20;99.90
569;DHT22;269;48.884;9.192;2022-12-22T16:35:19;11.20;99.90
569;DHT22;269;48.884;9.192;2022-12-22T16:37:49;11.20;99.90
569;DHT22;269;48.884;9.192;2022-12-22T16:40:18;11.10;99.90
569;DHT22;269;48.884;9.192;2022-12-22T16:42:49;11.10;99.90
569;DHT22;269;48.884;9.192;2022-12-22T16:45:19;11.10;99.90
569;DHT22;269;48.884;9.192;2022-12-22T16:47:48;11.10;99.90
569;DHT22;269;48.884;9.192;2022-12-22T16:50:19;11.00;99.90
569;DHT22;269;48.884;9.192;2022-12-22T16:52:49;11.00;99.90
569;DHT22;269;48.884;9.192;2022-12-22T16:55:18;10.90;99.90
569;DHT22;269;48.884;9.192;2022-12-22T16:57:46;10.90;99.90
569;DHT22;269;48.884;9.192;2022-12-22T17:00:14;10.90;99.90
569;DHT22;269;48.884;9.192;2022-12-22T17:02:43;10.80;99.90
569;DHT22;269;48.884;9.192;2022-12-22T17:05:22;10.80;99.90
569;DHT22;269;48.884;9.192;2022-12-22T17:07:54;10.80;99.90
569;DHT22;269;48.884;9.192;2022-12-22T17:10:22;10.80;99.90
569;DHT22;269;48.884;9.192;2022-12-22T17:12:51;10.80;99.90
569;DHT22;269;48.884;9.192;2022-12-22T17:15:20;10.80;99.90
569;DHT22;269;48.884;9.192;2022-12-22T17:17:48;10.70;99.90
569;DHT22;269;48.884;9.192;2022-12-22T17:20:17;10.80;99.90
569;DHT22;269;48.884;9.192;2022-12-22T17:22:47;10.70;99.90
569;DHT22;269;48.884;9.192;2022-12-22T17:25:19;10.70;99.90
569;DHT22;269;48.884;9.192;2022-12-22T17:27:47;10.70;99.90
569;DHT22;269;48.884;9.192;2022-12-22T17:30:16;10.70;99.90
569;DHT22;269;48.884;9.192;2022-12-22T17:32:47;10.70;99.90
569;DHT22;269;48.884;9.192;2022-12-22T17:35:19;10.70;99.90
569;DHT22;269;48.884;9.192;2022-12-22T17:37:48;10.70;99.90
569;DHT22;269;48.884;9.192;2022-12-22T17:40:21;10.70;99.90